createdAt,value
2018-02-23T00:01:10.488Z,52.37
2018-02-23T00:03:38.040Z,60.67
2018-02-23T00:06:05.611Z,58.03
2018-02-23T00:08:33.140Z,55.87
2018-02-23T00:11:00.637Z,56.73
2018-02-23T00:13:28.161Z,58.77
2018-02-23T00:15:55.690Z,55.23
2018-02-23T00:18:23.298Z,55.27
2018-02-23T00:20:50.789Z,58.63
2018-02-23T00:23:18.336Z,46.83
2018-02-23T00:25:45.894Z,55.57
2018-02-23T00:28:13.523Z,57.70
2018-02-23T00:30:41.058Z,54.77
2018-02-23T00:33:08.567Z,54.37
2018-02-23T00:35:36.081Z,59.77
2018-02-23T00:38:03.640Z,49.53
2018-02-23T00:40:31.123Z,52.87
2018-02-23T00:42:58.606Z,57.93
2018-02-23T00:45:26.513Z,49.17
2018-02-23T00:47:54.079Z,51.87
2018-02-23T00:50:21.608Z,48.17
2018-02-23T00:52:49.156Z,57.23
2018-02-23T00:55:16.696Z,56.30
2018-02-23T00:57:44.277Z,49.90
2018-02-23T01:00:11.824Z,50.10
2018-02-23T01:02:39.297Z,54.37
2018-02-23T01:05:06.820Z,45.93
2018-02-23T01:07:34.367Z,49.13
2018-02-23T01:10:01.906Z,50.67
2018-02-23T01:12:29.905Z,44.87
2018-02-23T01:14:57.424Z,52.37
2018-02-23T01:17:24.965Z,49.90
2018-02-23T01:19:52.461Z,49.13
2018-02-23T01:22:20.017Z,48.37
2018-02-23T01:24:47.562Z,43.87
2018-02-23T01:27:15.047Z,52.40
2018-02-23T01:29:42.582Z,44.30
2018-02-23T01:32:10.072Z,46.97
2018-02-23T01:34:37.593Z,40.83
2018-02-23T01:37:05.180Z,41.53
2018-02-23T01:39:32.712Z,46.87
2018-02-23T01:42:00.245Z,50.00
2018-02-23T01:44:27.810Z,40.10
2018-02-23T01:46:55.386Z,43.40
2018-02-23T01:49:22.915Z,37.20
2018-02-23T01:51:50.457Z,46.90
2018-02-23T01:54:18.044Z,42.80
2018-02-23T01:56:45.566Z,40.90
2018-02-23T01:59:13.082Z,38.93
2018-02-23T02:01:40.628Z,37.90
2018-02-23T02:04:08.144Z,38.73
2018-02-23T02:06:35.911Z,45.03
2018-02-23T02:09:03.424Z,40.53
2018-02-23T02:11:31.018Z,36.23
2018-02-23T02:13:58.681Z,38.00
2018-02-23T02:16:26.229Z,36.33
2018-02-23T02:18:53.760Z,41.90
2018-02-23T02:21:21.270Z,34.90
2018-02-23T02:23:48.821Z,36.43
2018-02-23T02:26:16.338Z,32.63
2018-02-23T02:28:43.835Z,39.23
2018-02-23T02:31:11.415Z,34.97
2018-02-23T02:33:38.951Z,37.47
2018-02-23T02:36:06.469Z,34.70
2018-02-23T02:38:33.980Z,34.87
2018-02-23T02:41:01.546Z,36.73
2018-02-23T02:43:29.106Z,32.67
2018-02-23T02:45:56.612Z,37.40
2018-02-23T02:48:24.185Z,36.50
2018-02-23T02:50:51.744Z,34.13
2018-02-23T02:53:19.237Z,32.57
2018-02-23T02:55:46.757Z,31.67
2018-02-23T02:58:14.302Z,31.37
2018-02-23T03:00:41.847Z,32.50
2018-02-23T03:03:09.432Z,30.60
2018-02-23T03:05:37.155Z,30.23
2018-02-23T03:08:04.674Z,32.73
2018-02-23T03:10:32.234Z,31.27
2018-02-23T03:12:59.790Z,29.77
2018-02-23T03:15:27.298Z,29.03
2018-02-23T03:17:54.798Z,32.70
2018-02-23T03:20:25.295Z,29.00
2018-02-23T03:22:52.798Z,32.53
2018-02-23T03:25:20.454Z,26.43
2018-02-23T03:27:48.049Z,31.97
2018-02-23T03:30:15.682Z,30.67
2018-02-23T03:32:43.254Z,29.73
2018-02-23T03:35:10.790Z,26.27
2018-02-23T03:37:38.371Z,29.43
2018-02-23T03:40:05.945Z,26.47
2018-02-23T03:42:33.450Z,32.93
2018-02-23T03:45:01.006Z,25.10
2018-02-23T03:47:28.527Z,30.10
2018-02-23T03:49:56.100Z,28.27
2018-02-23T03:52:23.645Z,30.43
2018-02-23T03:54:51.166Z,29.17
2018-02-23T03:57:18.679Z,33.60
2018-02-23T03:59:46.178Z,27.43
2018-02-23T04:02:13.698Z,31.10
2018-02-23T04:04:41.196Z,31.90
2018-02-23T04:07:08.702Z,35.07
2018-02-23T04:09:36.258Z,31.27
2018-02-23T04:12:03.830Z,30.53
2018-02-23T04:14:31.401Z,29.83
2018-02-23T04:16:59.004Z,30.40
2018-02-23T04:19:27.421Z,28.20
2018-02-23T04:21:54.930Z,32.47
2018-02-23T04:24:22.436Z,29.37
2018-02-23T04:26:49.953Z,31.73
2018-02-23T04:29:17.457Z,27.07
2018-02-23T04:31:45.021Z,28.17
2018-02-23T04:34:12.562Z,26.97
2018-02-23T04:36:40.097Z,28.87
2018-02-23T04:39:07.605Z,23.37
2018-02-23T04:41:36.628Z,28.93
2018-02-23T04:44:04.166Z,26.43
2018-02-23T04:46:31.667Z,27.23
2018-02-23T04:48:59.232Z,21.30
2018-02-23T04:51:26.730Z,24.00
2018-02-23T04:53:54.260Z,21.07
2018-02-23T04:56:21.822Z,23.70
2018-02-23T04:58:49.414Z,24.33
2018-02-23T05:01:16.932Z,28.40
2018-02-23T05:03:45.313Z,24.37
2018-02-23T05:06:12.824Z,23.97
2018-02-23T05:08:40.369Z,25.17
2018-02-23T05:11:07.878Z,25.00
2018-02-23T05:13:35.479Z,29.80
2018-02-23T05:16:02.982Z,27.33
2018-02-23T05:18:30.500Z,30.90
2018-02-23T05:20:57.993Z,25.97
2018-02-23T05:23:25.539Z,27.80
2018-02-23T05:25:53.083Z,28.80
2018-02-23T05:28:20.640Z,35.20
2018-02-23T05:30:48.200Z,34.43
2018-02-23T05:33:15.715Z,39.33
2018-02-23T05:35:43.319Z,37.80
2018-02-23T05:38:10.878Z,34.93
2018-02-23T05:40:38.369Z,40.50
2018-02-23T05:43:05.853Z,31.40
2018-02-23T05:45:33.375Z,34.23
2018-02-23T05:48:00.925Z,41.73
2018-02-23T05:50:28.504Z,36.87
2018-02-23T05:52:56.038Z,41.60
2018-02-23T05:55:23.570Z,35.33
2018-02-23T05:57:51.129Z,35.77
2018-02-23T06:00:18.683Z,38.17
2018-02-23T06:02:46.281Z,35.00
2018-02-23T06:05:13.836Z,36.73
2018-02-23T06:07:41.391Z,43.77
2018-02-23T06:10:08.928Z,40.37
2018-02-23T06:12:36.426Z,40.40
2018-02-23T06:15:04.090Z,36.17
2018-02-23T06:17:37.135Z,33.93
2018-02-23T06:20:08.619Z,37.77
2018-02-23T06:22:36.147Z,35.30
2018-02-23T06:25:03.707Z,39.10
2018-02-23T06:27:31.212Z,41.60
2018-02-23T06:29:58.735Z,42.63
2018-02-23T06:32:26.233Z,43.50
2018-02-23T06:34:53.814Z,37.63
2018-02-23T06:37:22.090Z,38.30
2018-02-23T06:39:49.632Z,37.77
2018-02-23T06:42:17.168Z,44.03
2018-02-23T06:44:44.732Z,34.33
2018-02-23T06:47:12.255Z,38.23
2018-02-23T06:49:39.757Z,35.47
2018-02-23T06:52:07.316Z,37.83
2018-02-23T06:54:34.880Z,37.83
2018-02-23T06:57:02.424Z,40.43
2018-02-23T06:59:29.953Z,47.17
2018-02-23T07:01:58.406Z,42.73
2018-02-23T07:04:25.983Z,38.23
2018-02-23T07:06:53.517Z,40.80
2018-02-23T07:09:21.077Z,39.17
2018-02-23T07:11:48.706Z,43.50
2018-02-23T07:14:16.295Z,36.43
2018-02-23T07:16:43.807Z,37.63
2018-02-23T07:19:11.353Z,41.67
2018-02-23T07:21:38.912Z,36.47
2018-02-23T07:24:06.441Z,36.47
2018-02-23T07:26:34.580Z,42.37
2018-02-23T07:29:02.171Z,44.60
2018-02-23T07:31:29.748Z,40.53
2018-02-23T07:33:57.289Z,38.40
2018-02-23T07:36:24.846Z,37.63
2018-02-23T07:38:52.368Z,38.90
2018-02-23T07:41:19.921Z,33.47
2018-02-23T07:43:47.439Z,36.43
2018-02-23T07:46:14.971Z,29.40
2018-02-23T07:48:42.556Z,20.57
2018-02-23T07:51:19.973Z,27.33
2018-02-23T07:53:47.515Z,24.90
2018-02-23T07:56:15.055Z,22.93
2018-02-23T07:58:42.636Z,23.70
2018-02-23T08:01:10.193Z,21.93
2018-02-23T08:03:37.792Z,24.60
2018-02-23T08:06:05.313Z,24.83
2018-02-23T08:08:32.879Z,23.23
2018-02-23T08:11:00.407Z,26.37
2018-02-23T08:13:27.950Z,25.07
2018-02-23T08:15:55.480Z,30.10
2018-02-23T08:18:23.033Z,28.10
2018-02-23T08:20:50.611Z,26.53
2018-02-23T08:23:18.218Z,30.73
2018-02-23T08:25:45.795Z,29.10
2018-02-23T08:28:13.354Z,30.57
2018-02-23T08:30:40.956Z,28.50
2018-02-23T08:33:08.542Z,30.67
2018-02-23T08:35:36.103Z,29.00
2018-02-23T08:38:03.652Z,30.70
2018-02-23T08:40:31.153Z,30.33
2018-02-23T08:42:58.721Z,28.90
2018-02-23T08:45:26.270Z,26.03
2018-02-23T08:47:53.826Z,31.03
2018-02-23T08:50:21.401Z,32.67
2018-02-23T08:52:48.946Z,28.13
2018-02-23T08:55:16.482Z,26.63
2018-02-23T08:57:44.027Z,31.33
2018-02-23T09:00:20.053Z,28.37
2018-02-23T09:02:47.608Z,29.77
2018-02-23T09:05:15.136Z,32.27
2018-02-23T09:07:42.676Z,30.13
2018-02-23T09:10:10.190Z,32.03
2018-02-23T09:12:37.825Z,30.87
2018-02-23T09:15:05.323Z,29.63
2018-02-23T09:17:32.901Z,26.73
2018-02-23T09:20:00.445Z,32.83
2018-02-23T09:22:28.003Z,30.50
2018-02-23T09:24:55.516Z,34.77
2018-02-23T09:27:23.004Z,28.73
2018-02-23T09:29:50.532Z,31.30
2018-02-23T09:32:29.765Z,31.70
2018-02-23T09:34:57.292Z,33.17
2018-02-23T09:37:24.812Z,32.77
2018-02-23T09:39:52.358Z,28.97
2018-02-23T09:42:19.950Z,27.57
2018-02-23T09:44:47.471Z,30.27
2018-02-23T09:47:14.962Z,28.47
2018-02-23T09:49:42.490Z,28.73
2018-02-23T09:52:10.061Z,26.73
2018-02-23T09:54:37.640Z,31.23
2018-02-23T09:57:05.234Z,32.00
2018-02-23T09:59:32.769Z,28.63
2018-02-23T10:02:00.273Z,32.43
2018-02-23T10:04:27.822Z,19.77
2018-02-23T10:06:55.385Z,26.17
2018-02-23T10:09:22.924Z,30.07
2018-02-23T10:11:50.500Z,27.50
2018-02-23T10:14:17.998Z,30.73
2018-02-23T10:16:45.627Z,28.10
2018-02-23T10:19:13.248Z,27.10
2018-02-23T10:21:40.774Z,27.67
2018-02-23T10:24:08.338Z,22.90
2018-02-23T10:26:35.866Z,33.40
2018-02-23T10:29:03.476Z,27.87
2018-02-23T10:31:31.011Z,28.57
2018-02-23T10:33:58.554Z,28.40
2018-02-23T10:36:27.951Z,29.47
2018-02-23T10:38:55.502Z,29.03
2018-02-23T10:41:23.001Z,20.10
2018-02-23T10:43:50.555Z,24.17
2018-02-23T10:46:18.133Z,26.10
2018-02-23T10:48:45.716Z,34.60
2018-02-23T10:51:13.214Z,27.60
2018-02-23T10:53:40.708Z,25.87
2018-02-23T10:56:08.465Z,27.73
2018-02-23T10:58:36.142Z,25.33
2018-02-23T11:01:03.797Z,28.47
2018-02-23T11:03:33.203Z,22.47
2018-02-23T11:06:00.788Z,28.93
2018-02-23T11:08:28.299Z,29.00
2018-02-23T11:10:55.798Z,32.93
2018-02-23T11:13:23.331Z,28.10
2018-02-23T11:15:50.882Z,29.57
2018-02-23T11:18:18.436Z,29.00
2018-02-23T11:20:45.975Z,26.13
2018-02-23T11:23:13.550Z,23.30
2018-02-23T11:25:41.173Z,27.27
2018-02-23T11:28:08.720Z,28.50
2018-02-23T11:30:36.752Z,24.03
2018-02-23T11:33:04.284Z,22.43
2018-02-23T11:35:31.849Z,24.47
2018-02-23T11:37:59.408Z,23.40
2018-02-23T11:40:26.968Z,22.57
2018-02-23T11:42:54.520Z,22.17
2018-02-23T11:45:22.068Z,20.47
2018-02-23T11:47:49.592Z,20.97
2018-02-23T11:50:17.137Z,22.67
2018-02-23T11:52:44.682Z,22.43
2018-02-23T11:55:12.230Z,19.97
2018-02-23T11:57:44.712Z,22.93
2018-02-23T12:00:12.264Z,20.83
2018-02-23T12:02:39.860Z,20.00
2018-02-23T12:05:07.421Z,22.53
2018-02-23T12:07:35.978Z,20.73
2018-02-23T12:10:03.532Z,20.60
2018-02-23T12:12:31.255Z,16.93
2018-02-23T12:14:58.772Z,20.10
2018-02-23T12:17:26.332Z,17.73
2018-02-23T12:19:53.876Z,19.43
2018-02-23T12:22:21.397Z,21.43
2018-02-23T12:24:48.911Z,21.60
2018-02-23T12:27:16.456Z,23.30
2018-02-23T12:29:44.057Z,19.73
2018-02-23T12:32:11.673Z,19.00
2018-02-23T12:34:39.234Z,23.23
2018-02-23T12:37:06.741Z,24.90
2018-02-23T12:39:34.305Z,22.20
2018-02-23T12:42:01.841Z,19.47
2018-02-23T12:44:29.366Z,16.40
2018-02-23T12:46:56.901Z,18.90
2018-02-23T12:49:24.446Z,22.73
2018-02-23T12:51:51.977Z,21.23
2018-02-23T12:54:19.529Z,22.57
2018-02-23T12:56:47.015Z,20.03
2018-02-23T12:59:14.551Z,20.53
2018-02-23T13:01:42.104Z,21.43
2018-02-23T13:04:09.640Z,16.90
2018-02-23T13:06:37.177Z,19.27
2018-02-23T13:09:04.742Z,20.83
2018-02-23T13:11:32.426Z,20.63
2018-02-23T13:14:00.685Z,18.60
2018-02-23T13:16:30.225Z,20.27
2018-02-23T13:18:57.960Z,17.73
2018-02-23T13:21:25.597Z,19.43
2018-02-23T13:23:53.144Z,20.40
2018-02-23T13:26:20.718Z,18.53
2018-02-23T13:28:48.231Z,17.63
2018-02-23T13:31:15.731Z,20.17
2018-02-23T13:33:43.223Z,19.53
2018-02-23T13:36:10.793Z,16.30
2018-02-23T13:38:38.452Z,19.63
2018-02-23T13:41:11.615Z,17.50
2018-02-23T13:43:39.274Z,20.17
2018-02-23T13:46:06.859Z,17.73
2018-02-23T13:48:34.405Z,18.30
2018-02-23T13:51:01.971Z,20.83
2018-02-23T13:53:35.087Z,20.53
2018-02-23T13:56:03.626Z,20.90
2018-02-23T13:58:31.254Z,21.30
2018-02-23T14:00:58.789Z,16.87
2018-02-23T14:03:26.342Z,20.60
2018-02-23T14:05:53.920Z,21.23
2018-02-23T14:08:22.245Z,19.10
2018-02-23T14:10:49.780Z,21.23
2018-02-23T14:13:17.319Z,18.97
2018-02-23T14:15:44.840Z,20.20
2018-02-23T14:18:12.581Z,14.87
2018-02-23T14:20:40.094Z,18.30
2018-02-23T14:23:07.674Z,19.13
2018-02-23T14:25:35.321Z,18.13
2018-02-23T14:28:02.849Z,17.70
2018-02-23T14:30:30.578Z,22.27
2018-02-23T14:32:58.143Z,21.73
2018-02-23T14:35:25.694Z,19.30
2018-02-23T14:37:53.307Z,17.33
2018-02-23T14:40:20.827Z,16.83
2018-02-23T14:42:48.330Z,16.50
2018-02-23T14:45:15.846Z,17.67
2018-02-23T14:47:43.450Z,17.13
2018-02-23T14:50:23.476Z,18.70
2018-02-23T14:52:51.033Z,13.07
2018-02-23T14:55:18.543Z,13.93
2018-02-23T14:57:46.306Z,17.40
2018-02-23T15:00:14.052Z,15.77
2018-02-23T15:02:41.839Z,14.60
2018-02-23T15:05:09.676Z,16.73
2018-02-23T15:07:37.442Z,17.27
2018-02-23T15:10:05.264Z,20.00
2018-02-23T15:12:32.995Z,17.57
2018-02-23T15:15:00.726Z,25.37
2018-02-23T15:17:28.509Z,16.23
2018-02-23T15:19:56.294Z,16.23
2018-02-23T15:22:24.941Z,16.57
2018-02-23T15:24:52.708Z,15.47
2018-02-23T15:27:20.363Z,17.30
2018-02-23T15:29:47.934Z,18.87
2018-02-23T15:35:22.142Z,16.70
2018-02-23T15:37:49.855Z,17.83
2018-02-23T15:40:17.671Z,15.27
2018-02-23T15:42:46.337Z,20.03
2018-02-23T15:45:14.198Z,21.80
2018-02-23T15:50:53.677Z,21.07
2018-02-23T15:53:21.528Z,20.87
2018-02-23T15:55:49.643Z,17.70
2018-02-23T15:58:17.328Z,17.03
2018-02-23T16:00:45.176Z,20.03
2018-02-23T16:03:12.960Z,18.97
2018-02-23T16:05:40.774Z,29.90
2018-02-23T16:08:08.656Z,20.97
2018-02-23T16:10:36.432Z,19.67
2018-02-23T16:13:05.164Z,24.20
2018-02-23T16:15:32.887Z,14.93
2018-02-23T16:18:00.940Z,20.20
2018-02-23T16:20:28.574Z,19.57
2018-02-23T16:22:56.333Z,20.83
2018-02-23T16:25:24.079Z,21.93
2018-02-23T16:27:51.861Z,21.10
2018-02-23T16:30:19.602Z,19.17
2018-02-23T16:32:47.335Z,24.80
2018-02-23T16:35:14.959Z,17.60
2018-02-23T16:37:43.120Z,17.53
2018-02-23T16:40:10.837Z,18.03
2018-02-23T16:42:38.748Z,16.27
2018-02-23T16:45:06.400Z,18.93
2018-02-23T16:47:34.127Z,21.10
2018-02-23T16:50:01.936Z,18.87
2018-02-23T16:52:29.769Z,25.43
2018-02-23T16:54:57.545Z,20.77
2018-02-23T16:57:25.262Z,17.50
2018-02-23T16:59:53.016Z,16.93
2018-02-23T17:02:20.817Z,20.60
2018-02-23T17:04:48.546Z,20.97
2018-02-23T17:07:16.277Z,18.73
2018-02-23T17:09:44.094Z,15.10
2018-02-23T17:12:11.877Z,21.03
2018-02-23T17:14:39.643Z,19.47
2018-02-23T17:17:07.503Z,19.23
2018-02-23T17:19:35.160Z,16.60
2018-02-23T17:22:02.923Z,36.33
2018-02-23T17:24:30.684Z,14.30
2018-02-23T17:26:58.413Z,17.70
2018-02-23T17:29:26.124Z,18.67
2018-02-23T17:31:53.650Z,16.43
2018-02-23T17:34:21.401Z,16.50
2018-02-23T17:36:49.067Z,20.57
2018-02-23T17:39:17.731Z,17.40
2018-02-23T17:41:45.470Z,18.10
2018-02-23T17:44:14.301Z,26.70
2018-02-23T17:46:41.982Z,18.87
2018-02-23T17:49:09.732Z,19.90
2018-02-23T17:51:37.508Z,15.87
2018-02-23T17:54:05.330Z,21.17
2018-02-23T17:56:33.033Z,21.77
2018-02-23T17:59:00.776Z,23.17
2018-02-23T18:01:28.548Z,21.10
2018-02-23T18:03:56.248Z,23.97
2018-02-23T18:06:23.972Z,22.20
2018-02-23T18:08:51.712Z,17.97
2018-02-23T18:11:19.504Z,19.93
2018-02-23T18:13:47.030Z,26.93
2018-02-23T18:16:14.728Z,21.57
2018-02-23T18:18:44.199Z,19.03
2018-02-23T18:21:11.856Z,23.40
2018-02-23T18:23:39.460Z,24.00
2018-02-23T18:26:07.721Z,18.77
2018-02-23T18:28:36.429Z,22.40
2018-02-23T18:31:04.100Z,27.97
2018-02-23T18:33:32.466Z,19.17
2018-02-23T18:52:05.308Z,26.93
2018-02-23T18:54:32.877Z,25.83
2018-02-23T18:57:00.742Z,22.40
2018-02-23T18:59:30.410Z,27.37
2018-02-23T19:01:59.121Z,24.17
2018-02-23T19:04:26.865Z,23.37
2018-02-23T19:06:54.664Z,25.57
2018-02-23T19:09:22.655Z,28.83
2018-02-23T19:11:50.415Z,31.57
2018-02-23T19:14:18.187Z,24.37
2018-02-23T19:16:46.048Z,34.53
2018-02-23T19:19:14.504Z,22.17
2018-02-23T19:21:43.804Z,23.43
2018-02-23T19:24:11.525Z,24.53
2018-02-23T19:26:39.253Z,31.97
2018-02-23T19:29:07.158Z,24.70
2018-02-23T19:31:34.928Z,25.17
2018-02-23T19:34:02.545Z,24.00
2018-02-23T19:36:30.243Z,27.43
2018-02-23T19:38:58.482Z,25.83
2018-02-23T19:41:26.325Z,26.40
2018-02-23T19:43:54.110Z,28.47
2018-02-23T19:46:22.073Z,26.13
2018-02-23T19:48:50.360Z,26.93
2018-02-23T20:04:13.210Z,28.33
2018-02-23T20:06:41.062Z,31.63
2018-02-23T20:09:10.033Z,26.47
2018-02-23T20:11:37.845Z,26.53
2018-02-23T20:14:05.632Z,24.70
2018-02-23T20:16:33.215Z,20.83
2018-02-23T20:19:01.296Z,23.77
2018-02-23T20:21:29.196Z,31.13
2018-02-23T20:23:56.967Z,26.23
2018-02-23T20:26:24.874Z,25.17
2018-02-23T20:28:52.631Z,23.60
2018-02-23T20:31:20.448Z,24.50
2018-02-23T20:33:48.260Z,27.60
2018-02-23T20:36:19.033Z,24.70
2018-02-23T20:38:48.245Z,24.50
2018-02-23T20:41:17.127Z,24.30
2018-02-23T20:43:44.927Z,28.10
2018-02-23T20:46:13.038Z,26.37
2018-02-23T20:48:40.853Z,24.50
2018-02-23T20:51:10.105Z,27.60
2018-02-23T20:53:38.022Z,23.23
2018-02-23T20:56:05.874Z,24.67
2018-02-23T20:58:33.655Z,26.77
2018-02-23T21:01:01.424Z,25.10
2018-02-23T21:03:29.337Z,24.53
2018-02-23T21:05:57.139Z,25.83
2018-02-23T21:08:24.931Z,22.93
2018-02-23T21:10:52.627Z,24.27
2018-02-23T21:13:20.337Z,25.83
2018-02-23T21:15:48.306Z,27.37
2018-02-23T21:18:16.190Z,23.67
2018-02-23T21:20:44.195Z,25.40
2018-02-23T21:23:12.084Z,23.67
2018-02-23T21:25:39.969Z,20.97
2018-02-23T21:28:07.742Z,25.37
2018-02-23T21:30:35.637Z,23.57
2018-02-23T21:33:03.321Z,28.37
2018-02-23T21:35:31.862Z,30.30
2018-02-23T21:37:59.409Z,18.93
2018-02-23T21:40:27.228Z,26.07
2018-02-23T21:42:55.269Z,28.33
2018-02-23T21:45:23.011Z,27.80
2018-02-23T21:47:50.909Z,23.07
2018-02-23T21:50:18.757Z,27.20
2018-02-23T21:52:46.571Z,27.13
2018-02-23T21:55:14.496Z,26.13
2018-02-23T21:57:42.123Z,23.10
2018-02-23T22:00:09.909Z,29.57
2018-02-23T22:02:37.626Z,28.43
2018-02-23T22:05:05.429Z,25.23
2018-02-23T22:07:33.288Z,29.60
2018-02-23T22:10:01.134Z,26.60
2018-02-23T22:12:28.812Z,25.20
2018-02-23T22:14:56.618Z,27.47
2018-02-23T22:17:24.320Z,25.00
2018-02-23T22:19:51.949Z,20.60
2018-02-23T22:22:20.610Z,26.20
2018-02-23T22:24:48.351Z,27.53
2018-02-23T22:27:16.184Z,24.10
2018-02-23T22:29:44.055Z,27.60
2018-02-23T22:32:11.918Z,27.03
2018-02-23T22:34:39.685Z,28.10
2018-02-23T22:37:07.459Z,26.40
2018-02-23T22:39:35.110Z,33.20
2018-02-23T22:42:02.833Z,24.70
2018-02-23T22:44:30.550Z,31.97
2018-02-23T22:46:58.331Z,29.47
2018-02-23T22:49:26.127Z,23.83
2018-02-23T22:51:54.434Z,32.13
2018-02-23T22:54:22.239Z,24.73
2018-02-23T22:56:49.994Z,24.37
2018-02-23T22:59:17.654Z,27.30
2018-02-23T23:01:45.358Z,29.40
2018-02-23T23:04:13.116Z,31.37
2018-02-23T23:06:40.941Z,23.40
2018-02-23T23:09:08.685Z,25.30
2018-02-23T23:11:36.565Z,25.80
2018-02-23T23:14:04.349Z,22.53
2018-02-23T23:16:32.137Z,23.50
2018-02-23T23:18:59.913Z,26.30
2018-02-23T23:21:27.754Z,24.57
2018-02-23T23:23:55.551Z,28.97
2018-02-23T23:26:23.385Z,28.07
2018-02-23T23:28:51.165Z,21.17
2018-02-23T23:31:18.948Z,23.57
2018-02-23T23:33:46.832Z,25.17
2018-02-23T23:36:14.674Z,28.97
2018-02-23T23:38:42.418Z,24.00
2018-02-23T23:41:09.948Z,26.07
2018-02-23T23:43:37.489Z,27.50
2018-02-23T23:46:05.010Z,25.70
2018-02-23T23:48:32.561Z,29.57
2018-02-23T23:51:00.128Z,30.63
2018-02-23T23:53:27.664Z,27.43
2018-02-23T23:55:55.181Z,30.97
2018-02-23T23:58:22.688Z,24.70
